createdAt,value
2022-08-16T00:00:47.718Z,6.35
2022-08-16T00:03:25.011Z,5.38
2022-08-16T00:05:57.502Z,5.22
2022-08-16T00:08:36.129Z,5.45
2022-08-16T00:11:07.683Z,4.80
2022-08-16T00:13:55.579Z,4.93
2022-08-16T00:17:05.778Z,5.95
2022-08-16T00:19:23.036Z,4.45
2022-08-16T00:21:54.527Z,4.70
2022-08-16T00:24:31.243Z,4.72
2022-08-16T00:27:03.890Z,4.63
2022-08-16T00:29:32.267Z,4.22
2022-08-16T00:32:05.959Z,4.40
2022-08-16T00:34:44.000Z,4.15
2022-08-16T00:40:34.926Z,3.95
2022-08-16T00:43:12.050Z,4.05
2022-08-16T00:46:00.027Z,4.40
2022-08-16T00:48:43.910Z,4.68
2022-08-16T00:51:21.554Z,4.68
2022-08-16T00:53:58.130Z,3.92
2022-08-16T00:59:23.846Z,4.30
2022-08-16T01:02:30.555Z,4.30
2022-08-16T01:05:09.680Z,4.18
2022-08-16T01:07:52.129Z,4.20
2022-08-16T01:10:32.653Z,4.18
2022-08-16T01:13:07.790Z,4.50
2022-08-16T01:15:45.652Z,3.78
2022-08-16T01:18:40.315Z,4.22
2022-08-16T01:21:16.528Z,4.05
2022-08-16T01:23:58.378Z,4.40
2022-08-16T01:26:35.407Z,4.78
2022-08-16T01:29:05.799Z,4.22
2022-08-16T01:31:42.507Z,4.78
2022-08-16T01:34:22.743Z,4.45
2022-08-16T01:37:03.784Z,4.43
2022-08-16T01:39:35.849Z,5.72
2022-08-16T01:42:12.946Z,4.60
2022-08-16T01:44:55.884Z,4.00
2022-08-16T01:47:27.827Z,4.50
2022-08-16T01:50:42.246Z,4.07
2022-08-16T01:52:57.291Z,4.18
2022-08-16T01:56:24.264Z,4.97
2022-08-16T01:59:04.941Z,3.97
2022-08-16T02:01:38.403Z,4.28
2022-08-16T02:04:10.396Z,4.32
2022-08-16T02:06:47.953Z,4.40
2022-08-16T02:09:26.701Z,4.55
2022-08-16T02:12:51.751Z,4.28
2022-08-16T02:15:08.315Z,4.68
2022-08-16T02:17:39.116Z,4.28
2022-08-16T02:20:13.996Z,3.85
2022-08-16T02:22:49.821Z,3.88
2022-08-16T02:25:17.912Z,4.13
2022-08-16T02:30:35.850Z,3.80
2022-08-16T02:33:17.158Z,4.22
2022-08-16T02:36:00.109Z,3.92
2022-08-16T02:38:31.629Z,4.28
2022-08-16T02:41:07.295Z,4.18
2022-08-16T02:46:14.926Z,3.83
2022-08-16T02:48:47.530Z,4.55
2022-08-16T02:51:19.031Z,3.97
2022-08-16T02:53:56.555Z,4.00
2022-08-16T02:56:25.783Z,3.92
2022-08-16T02:59:00.141Z,4.10
2022-08-16T03:01:36.532Z,4.30
2022-08-16T03:04:29.030Z,3.97
2022-08-16T03:09:44.633Z,4.28
2022-08-16T03:12:16.354Z,4.72
2022-08-16T03:14:46.786Z,4.13
2022-08-16T03:17:20.911Z,4.40
2022-08-16T03:19:59.601Z,4.55
2022-08-16T03:22:33.248Z,4.00
2022-08-16T03:25:09.895Z,4.18
2022-08-16T03:27:42.764Z,4.47
2022-08-16T03:30:18.210Z,4.70
2022-08-16T03:33:07.708Z,4.22
2022-08-16T03:35:42.351Z,4.90
2022-08-16T03:38:38.236Z,4.72
2022-08-16T03:41:24.587Z,3.95
2022-08-16T03:43:58.716Z,4.50
2022-08-16T03:46:44.895Z,4.63
2022-08-16T03:49:36.491Z,7.28
2022-08-16T03:52:13.393Z,4.50
2022-08-16T03:54:52.226Z,5.18
2022-08-16T03:57:35.668Z,4.65
2022-08-16T04:00:20.512Z,4.70
2022-08-16T04:03:07.555Z,4.90
2022-08-16T04:05:43.997Z,5.88
2022-08-16T04:08:23.794Z,5.50
2022-08-16T04:10:58.959Z,5.13
2022-08-16T04:14:00.236Z,5.15
2022-08-16T04:16:27.671Z,5.70
2022-08-16T04:19:04.357Z,5.22
2022-08-16T04:21:45.963Z,5.80
2022-08-16T04:24:19.458Z,5.93
2022-08-16T04:26:50.565Z,5.40
2022-08-16T04:29:23.716Z,4.85
2022-08-16T04:32:01.547Z,5.25
2022-08-16T04:34:36.857Z,5.25
2022-08-16T04:37:07.567Z,4.97
2022-08-16T04:39:46.789Z,5.38
2022-08-16T04:42:25.878Z,5.22
2022-08-16T04:44:55.889Z,4.82
2022-08-16T04:47:31.698Z,4.95
2022-08-16T04:50:03.913Z,4.43
2022-08-16T04:52:36.639Z,4.80
2022-08-16T04:55:07.563Z,4.93
2022-08-16T04:57:37.538Z,5.10
2022-08-16T05:00:30.847Z,4.90
2022-08-16T05:02:58.912Z,4.03
2022-08-16T05:05:32.907Z,4.50
2022-08-16T05:08:28.384Z,4.50
2022-08-16T05:11:03.678Z,4.25
2022-08-16T05:13:39.908Z,4.47
2022-08-16T05:16:11.870Z,4.43
2022-08-16T05:18:39.686Z,3.92
2022-08-16T05:21:11.383Z,3.80
2022-08-16T05:23:51.643Z,9.90
2022-08-16T05:26:27.994Z,6.70
2022-08-16T05:28:56.207Z,5.90
2022-08-16T05:31:29.906Z,5.60
2022-08-16T05:33:58.549Z,4.18
2022-08-16T05:36:33.757Z,4.28
2022-08-16T05:39:05.592Z,4.55
2022-08-16T05:41:33.394Z,4.63
2022-08-16T05:44:23.958Z,4.47
2022-08-16T05:46:56.024Z,3.83
2022-08-16T05:49:24.135Z,4.32
2022-08-16T05:51:57.047Z,4.05
2022-08-16T05:54:28.248Z,3.90
2022-08-16T05:56:59.986Z,4.57
2022-08-16T05:59:28.022Z,3.95
2022-08-16T06:01:57.148Z,3.97
2022-08-16T06:04:36.470Z,3.83
2022-08-16T06:07:09.072Z,4.43
2022-08-16T06:10:00.216Z,3.78
2022-08-16T06:12:31.529Z,4.47
2022-08-16T06:15:07.711Z,3.78
2022-08-16T06:17:41.535Z,3.97
2022-08-16T06:20:14.197Z,5.82
2022-08-16T06:22:58.448Z,4.15
2022-08-16T06:25:39.163Z,4.15
2022-08-16T06:28:09.555Z,4.40
2022-08-16T06:30:44.082Z,4.82
2022-08-16T06:33:19.899Z,3.92
2022-08-16T06:35:55.033Z,4.20
2022-08-16T06:38:33.351Z,4.57
2022-08-16T06:41:13.704Z,4.03
2022-08-16T06:43:42.372Z,4.28
2022-08-16T06:46:23.847Z,4.32
2022-08-16T06:48:59.772Z,4.55
2022-08-16T06:51:46.385Z,4.10
2022-08-16T06:54:15.129Z,5.63
2022-08-16T06:56:45.115Z,4.00
2022-08-16T06:59:14.895Z,4.70
2022-08-16T07:01:54.952Z,4.18
2022-08-16T07:04:33.317Z,4.22
2022-08-16T07:07:14.586Z,4.90
2022-08-16T07:09:42.835Z,4.40
2022-08-16T07:12:11.720Z,4.75
2022-08-16T07:14:44.973Z,4.18
2022-08-16T07:17:19.045Z,4.35
2022-08-16T07:20:30.756Z,4.13
2022-08-16T07:22:58.860Z,4.45
2022-08-16T07:25:41.452Z,4.18
2022-08-16T07:28:20.707Z,4.60
2022-08-16T07:30:53.453Z,4.28
2022-08-16T07:33:52.028Z,4.57
2022-08-16T07:36:22.515Z,4.63
2022-08-16T07:38:52.341Z,5.15
2022-08-16T07:41:20.573Z,4.10
2022-08-16T07:43:54.647Z,4.40
2022-08-16T07:46:36.903Z,5.22
2022-08-16T07:49:15.260Z,4.25
2022-08-16T07:51:45.672Z,4.75
2022-08-16T07:54:21.348Z,5.00
2022-08-16T07:57:01.655Z,5.27
2022-08-16T07:59:46.122Z,4.78
2022-08-16T08:02:20.631Z,4.18
2022-08-16T08:04:53.523Z,4.93
2022-08-16T08:07:21.120Z,4.75
2022-08-16T08:09:51.055Z,5.00
2022-08-16T08:12:32.592Z,4.78
2022-08-16T08:15:09.777Z,4.10
2022-08-16T08:17:42.961Z,5.20
2022-08-16T08:20:20.830Z,5.05
2022-08-16T08:23:00.545Z,5.40
2022-08-16T08:25:54.297Z,5.85
2022-08-16T08:28:20.061Z,5.15
2022-08-16T08:31:01.329Z,5.07
2022-08-16T08:33:32.320Z,4.65
2022-08-16T08:36:02.763Z,4.90
2022-08-16T08:38:44.282Z,4.93
2022-08-16T08:41:15.332Z,5.82
2022-08-16T08:43:47.137Z,4.72
2022-08-16T08:46:21.407Z,5.70
2022-08-16T08:49:02.011Z,5.45
2022-08-16T08:51:35.867Z,5.03
2022-08-16T08:54:07.040Z,6.63
2022-08-16T08:56:45.251Z,6.03
2022-08-16T08:59:40.856Z,5.28
2022-08-16T09:02:11.899Z,5.07
2022-08-16T09:04:44.547Z,6.30
2022-08-16T09:07:17.592Z,5.75
2022-08-16T09:09:47.633Z,5.32
2022-08-16T09:12:35.537Z,5.25
2022-08-16T09:15:21.513Z,5.50
2022-08-16T09:17:55.694Z,5.70
2022-08-16T09:20:27.113Z,5.30
2022-08-16T09:22:55.250Z,4.88
2022-08-16T09:25:34.083Z,4.90
2022-08-16T09:28:08.906Z,5.20
2022-08-16T09:30:44.343Z,5.30
2022-08-16T09:33:20.398Z,3.85
2022-08-16T09:35:53.041Z,4.88
2022-08-16T09:38:32.245Z,4.60
2022-08-16T09:41:00.663Z,3.85
2022-08-16T09:43:58.446Z,4.15
2022-08-16T09:46:48.816Z,3.88
2022-08-16T09:49:05.417Z,3.83
2022-08-16T09:51:37.526Z,3.72
2022-08-16T09:54:06.056Z,4.20
2022-08-16T09:56:38.089Z,5.43
2022-08-16T09:59:08.633Z,3.92
2022-08-16T10:01:38.425Z,3.78
2022-08-16T10:04:30.388Z,4.13
2022-08-16T10:09:42.324Z,3.60
2022-08-16T10:12:42.702Z,3.55
2022-08-16T10:15:15.629Z,3.72
2022-08-16T10:17:45.699Z,4.43
2022-08-16T10:20:30.207Z,3.70
2022-08-16T10:23:03.552Z,4.25
2022-08-16T10:27:18.888Z,4.22
2022-08-16T10:28:31.947Z,4.18
2022-08-16T10:31:00.559Z,3.65
2022-08-16T10:33:33.512Z,3.63
2022-08-16T10:36:04.932Z,3.60
2022-08-16T10:38:36.520Z,4.68
2022-08-16T10:41:05.403Z,4.45
2022-08-16T10:43:38.468Z,3.70
2022-08-16T10:46:39.800Z,4.05
2022-08-16T10:48:55.078Z,4.80
2022-08-16T10:51:34.443Z,3.40
2022-08-16T10:54:28.778Z,3.53
2022-08-16T10:56:57.587Z,3.15
2022-08-16T10:59:44.641Z,3.25
2022-08-16T11:02:59.864Z,3.20
2022-08-16T11:05:06.263Z,3.47
2022-08-16T11:07:51.447Z,2.72
2022-08-16T11:16:25.014Z,3.42
2022-08-16T11:19:04.260Z,3.40
2022-08-16T11:21:35.205Z,2.97
2022-08-16T11:24:04.983Z,2.97
2022-08-16T11:29:44.313Z,3.28
2022-08-16T11:32:11.843Z,3.13
2022-08-16T11:35:09.936Z,3.10
2022-08-16T11:38:23.524Z,2.88
2022-08-16T11:40:24.587Z,3.38
2022-08-16T11:43:00.126Z,2.83
2022-08-16T11:45:27.648Z,3.80
2022-08-16T11:48:01.191Z,3.30
2022-08-16T11:50:28.649Z,2.83
2022-08-16T11:52:56.240Z,3.00
2022-08-16T11:55:25.419Z,2.90
2022-08-16T11:57:57.456Z,2.88
2022-08-16T12:00:33.833Z,2.80
2022-08-16T12:03:13.001Z,2.80
2022-08-16T12:05:42.720Z,2.90
2022-08-16T12:08:10.963Z,3.15
2022-08-16T12:10:43.258Z,3.05
2022-08-16T12:13:12.241Z,3.05
2022-08-16T12:15:41.756Z,2.83
2022-08-16T12:18:09.673Z,2.80
2022-08-16T12:20:38.386Z,3.03
2022-08-16T12:23:06.258Z,2.78
2022-08-16T12:25:36.076Z,2.90
2022-08-16T12:28:07.695Z,2.70
2022-08-16T12:30:38.916Z,2.83
2022-08-16T12:33:07.324Z,2.63
2022-08-16T12:35:35.925Z,3.22
2022-08-16T12:38:36.385Z,2.97
2022-08-16T12:40:55.552Z,2.50
2022-08-16T12:43:26.337Z,2.60
2022-08-16T12:45:59.411Z,3.40
2022-08-16T12:48:48.200Z,2.75
2022-08-16T12:51:22.183Z,2.80
2022-08-16T12:53:52.704Z,2.85
2022-08-16T12:56:21.285Z,2.70
2022-08-16T12:58:51.879Z,2.92
2022-08-16T13:01:19.883Z,2.60
2022-08-16T13:03:59.156Z,2.60
2022-08-16T13:06:37.196Z,3.00
2022-08-16T13:09:19.987Z,2.83
2022-08-16T13:11:57.865Z,2.85
2022-08-16T13:14:32.264Z,2.80
2022-08-16T13:17:00.706Z,2.70
2022-08-16T13:19:49.786Z,2.10
2022-08-16T13:22:19.773Z,2.13
2022-08-16T13:24:47.565Z,2.75
2022-08-16T13:27:15.486Z,2.70
2022-08-16T13:29:45.017Z,2.97
2022-08-16T13:32:40.237Z,2.55
2022-08-16T13:35:05.734Z,2.83
2022-08-16T13:37:33.339Z,3.08
2022-08-16T13:40:04.493Z,2.88
2022-08-16T13:42:33.349Z,2.85
2022-08-16T13:45:15.715Z,3.22
2022-08-16T13:47:43.539Z,2.60
2022-08-16T13:50:13.656Z,3.17
2022-08-16T13:52:41.359Z,2.75
2022-08-16T13:55:17.533Z,3.08
2022-08-16T13:57:53.362Z,2.83
2022-08-16T14:00:35.556Z,2.83
2022-08-16T14:03:02.998Z,2.33
2022-08-16T14:05:30.501Z,2.78
2022-08-16T14:07:57.991Z,2.95
2022-08-16T14:10:28.294Z,2.97
2022-08-16T14:12:55.821Z,2.22
2022-08-16T14:15:23.340Z,2.50
2022-08-16T14:18:17.556Z,2.50
2022-08-16T14:20:39.627Z,2.92
2022-08-16T14:23:15.917Z,2.83
2022-08-16T14:25:43.513Z,3.30
2022-08-16T14:28:23.477Z,2.75
2022-08-16T14:30:51.528Z,2.80
2022-08-16T14:33:20.421Z,3.75
2022-08-16T14:35:50.383Z,3.28
2022-08-16T14:38:19.095Z,3.53
2022-08-16T14:40:55.599Z,3.15
2022-08-16T14:43:23.408Z,3.40
2022-08-16T14:45:50.876Z,3.47
2022-08-16T14:48:25.860Z,3.13
2022-08-16T14:50:54.247Z,3.42
2022-08-16T14:53:23.223Z,3.47
2022-08-16T14:55:50.802Z,3.88
2022-08-16T14:58:20.226Z,3.20
2022-08-16T15:01:02.779Z,2.92
2022-08-16T15:03:33.045Z,3.92
2022-08-16T15:06:01.837Z,3.47
2022-08-16T15:08:36.446Z,3.85
2022-08-16T15:11:05.117Z,3.35
2022-08-16T15:13:32.549Z,3.55
2022-08-16T15:16:02.720Z,3.38
2022-08-16T15:18:32.368Z,3.65
2022-08-16T15:21:00.265Z,3.25
2022-08-16T15:23:28.342Z,3.30
2022-08-16T15:26:03.084Z,3.17
2022-08-16T15:28:32.524Z,3.15
2022-08-16T15:31:03.893Z,4.88
2022-08-16T15:33:33.881Z,4.07
2022-08-16T15:36:02.672Z,3.95
2022-08-16T15:38:55.179Z,2.90
2022-08-16T15:41:31.687Z,3.70
2022-08-16T15:44:05.112Z,3.28
2022-08-16T15:46:57.149Z,3.65
2022-08-16T15:49:38.134Z,3.70
2022-08-16T15:52:15.127Z,4.10
2022-08-16T15:54:52.469Z,3.63
2022-08-16T15:57:20.344Z,3.58
2022-08-16T15:59:52.550Z,4.03
2022-08-16T16:02:29.407Z,3.67
2022-08-16T16:05:01.723Z,3.50
2022-08-16T16:07:30.523Z,3.65
2022-08-16T16:09:59.418Z,3.50
2022-08-16T16:12:51.629Z,3.78
2022-08-16T16:15:16.029Z,3.97
2022-08-16T16:17:43.927Z,3.90
2022-08-16T16:20:15.733Z,3.83
2022-08-16T16:22:43.498Z,3.85
2022-08-16T16:25:15.641Z,3.80
2022-08-16T16:27:43.269Z,4.32
2022-08-16T16:30:33.427Z,4.55
2022-08-16T16:32:59.305Z,4.32
2022-08-16T16:35:32.964Z,4.15
2022-08-16T16:38:00.870Z,4.55
2022-08-16T16:40:32.591Z,4.22
2022-08-16T16:43:01.067Z,5.18
2022-08-16T16:45:34.640Z,4.40
2022-08-16T16:48:12.508Z,5.15
2022-08-16T16:50:44.699Z,4.90
2022-08-16T16:53:17.661Z,3.85
2022-08-16T16:55:51.611Z,4.00
2022-08-16T16:58:37.077Z,5.30
2022-08-16T17:01:04.680Z,5.28
2022-08-16T17:03:33.702Z,4.55
2022-08-16T17:06:09.144Z,4.55
2022-08-16T17:08:40.695Z,4.45
2022-08-16T17:11:09.515Z,5.80
2022-08-16T17:13:38.473Z,5.07
2022-08-16T17:16:06.127Z,5.43
2022-08-16T17:19:01.987Z,4.75
2022-08-16T17:21:25.025Z,5.63
2022-08-16T17:23:58.608Z,4.40
2022-08-16T17:26:30.209Z,4.70
2022-08-16T17:29:02.738Z,5.45
2022-08-16T17:31:46.960Z,4.68
2022-08-16T17:34:29.224Z,4.28
2022-08-16T17:37:00.503Z,4.55
2022-08-16T17:39:29.843Z,4.60
2022-08-16T17:41:57.628Z,4.50
2022-08-16T17:46:53.142Z,4.15
2022-08-16T17:49:20.774Z,3.85
2022-08-16T17:51:48.370Z,4.72
2022-08-16T17:56:47.569Z,4.18
2022-08-16T17:59:15.365Z,5.15
2022-08-16T18:01:43.223Z,4.60
2022-08-16T18:04:10.699Z,4.32
2022-08-16T18:06:38.465Z,4.25
2022-08-16T18:09:06.879Z,5.05
2022-08-16T18:11:38.199Z,4.50
2022-08-16T18:14:10.678Z,4.82
2022-08-16T18:16:40.511Z,4.47
2022-08-16T18:19:08.079Z,4.38
2022-08-16T18:22:07.642Z,4.18
2022-08-16T18:24:35.115Z,5.28
2022-08-16T18:29:55.131Z,4.97
2022-08-16T18:32:24.605Z,4.53
2022-08-16T18:34:52.584Z,4.10
2022-08-16T18:37:21.795Z,5.28
2022-08-16T18:39:49.328Z,4.90
2022-08-16T18:42:16.847Z,5.57
2022-08-16T18:44:44.712Z,4.78
2022-08-16T18:47:13.489Z,4.50
2022-08-16T18:49:40.932Z,5.60
2022-08-16T18:52:08.407Z,6.00
2022-08-16T18:55:02.942Z,5.63
2022-08-16T18:57:23.463Z,6.63
2022-08-16T18:59:50.903Z,5.90
2022-08-16T19:02:57.643Z,5.35
2022-08-16T19:05:14.086Z,5.60
2022-08-16T19:07:41.539Z,5.38
2022-08-16T19:10:09.536Z,5.47
2022-08-16T19:12:42.157Z,4.90
2022-08-16T19:15:14.273Z,5.80
2022-08-16T19:17:45.079Z,6.22
2022-08-16T19:20:13.660Z,5.40
2022-08-16T19:25:48.388Z,5.95
2022-08-16T19:28:21.700Z,5.68
2022-08-16T19:31:06.204Z,6.97
2022-08-16T19:33:35.419Z,7.22
2022-08-16T19:36:04.839Z,6.95
2022-08-16T19:40:59.619Z,6.63
2022-08-16T19:43:27.020Z,7.55
2022-08-16T19:45:54.454Z,6.93
2022-08-16T19:48:22.250Z,5.95
2022-08-16T19:53:19.558Z,6.32
2022-08-16T19:55:47.555Z,6.43
2022-08-16T19:58:16.790Z,5.65
2022-08-16T20:00:46.403Z,6.30
2022-08-16T20:03:15.497Z,6.85
2022-08-16T20:05:43.644Z,6.70
2022-08-16T20:08:12.491Z,7.18
2022-08-16T20:10:42.400Z,6.95
2022-08-16T20:13:14.055Z,7.03
2022-08-16T20:15:42.330Z,6.53
2022-08-16T20:18:23.075Z,8.02
2022-08-16T20:20:52.703Z,7.13
2022-08-16T20:23:24.428Z,7.32
2022-08-16T20:25:55.419Z,7.72
2022-08-16T20:28:40.763Z,8.55
2022-08-16T20:33:37.748Z,7.78
2022-08-16T20:36:05.225Z,8.65
2022-08-16T20:38:32.659Z,7.82
2022-08-16T20:41:01.651Z,7.97
2022-08-16T20:43:29.109Z,9.02
2022-08-16T20:45:56.576Z,9.13
2022-08-16T20:48:24.056Z,10.13
2022-08-16T20:50:51.477Z,8.43
2022-08-16T20:53:19.096Z,8.57
2022-08-16T20:55:46.515Z,8.80
2022-08-16T20:58:15.625Z,8.82
2022-08-16T21:00:43.212Z,8.55
2022-08-16T21:03:11.979Z,8.45
2022-08-16T21:05:39.506Z,8.82
2022-08-16T21:08:50.158Z,8.00
2022-08-16T21:13:25.294Z,8.85
2022-08-16T21:15:52.837Z,8.93
2022-08-16T21:18:20.325Z,8.60
2022-08-16T21:20:47.768Z,8.70
2022-08-16T21:23:15.308Z,8.82
2022-08-16T21:25:57.961Z,9.25
2022-08-16T21:28:40.397Z,8.98
2022-08-16T21:31:10.745Z,7.75
2022-08-16T21:33:38.259Z,9.35
2022-08-16T21:36:05.874Z,8.43
2022-08-16T21:38:33.330Z,8.35
2022-08-16T21:41:01.067Z,7.97
2022-08-16T21:43:32.656Z,8.75
2022-08-16T21:46:00.576Z,8.40
2022-08-16T21:48:34.119Z,8.20
2022-08-16T21:51:03.524Z,8.35
2022-08-16T21:55:59.022Z,8.75
2022-08-16T21:58:26.535Z,8.73
2022-08-16T22:00:55.367Z,8.05
2022-08-16T22:03:23.379Z,9.52
2022-08-16T22:06:11.632Z,10.40
2022-08-16T22:08:49.119Z,8.05
2022-08-16T22:11:18.255Z,8.75
2022-08-16T22:13:51.509Z,8.77
2022-08-16T22:16:27.988Z,9.02
2022-08-16T22:18:55.585Z,8.40
2022-08-16T22:21:23.212Z,9.50
2022-08-16T22:23:55.172Z,9.10
2022-08-16T22:26:30.039Z,9.32
2022-08-16T22:28:58.894Z,9.27
2022-08-16T22:31:30.145Z,9.70
2022-08-16T22:33:57.821Z,7.90
2022-08-16T22:36:28.466Z,9.55
2022-08-16T22:38:57.821Z,9.30
2022-08-16T22:41:26.327Z,10.38
2022-08-16T22:46:21.130Z,9.55
2022-08-16T22:48:50.791Z,9.05
2022-08-16T22:51:18.569Z,8.55
2022-08-16T22:53:46.015Z,9.68
2022-08-16T22:56:15.334Z,9.40
2022-08-16T22:58:49.675Z,8.85
2022-08-16T23:01:18.309Z,9.45
2022-08-16T23:03:45.998Z,9.80
2022-08-16T23:06:15.398Z,9.07
2022-08-16T23:08:43.049Z,8.98
2022-08-16T23:11:11.969Z,9.38
2022-08-16T23:13:47.951Z,10.35
2022-08-16T23:16:21.520Z,9.23
2022-08-16T23:18:49.675Z,9.38
2022-08-16T23:21:18.591Z,9.00
2022-08-16T23:23:46.940Z,8.35
2022-08-16T23:26:43.985Z,8.90
2022-08-16T23:29:05.174Z,9.35
2022-08-16T23:31:32.850Z,8.52
2022-08-16T23:34:00.553Z,9.02
2022-08-16T23:36:29.390Z,8.95
2022-08-16T23:38:56.822Z,9.25
2022-08-16T23:41:24.485Z,8.95
2022-08-16T23:43:51.939Z,8.25
2022-08-16T23:46:19.763Z,8.50
2022-08-16T23:51:36.180Z,8.23
2022-08-16T23:54:03.609Z,8.43
2022-08-16T23:56:38.956Z,9.20
2022-08-16T23:59:08.283Z,8.73
